Dades meteomassalio
Diari Summary for Octubre 17, 2017 Units:  English    Metric   Both
« Previous Day
Next Day »
Diari Semanal Mensual Anual Personalitzat
  Maxima: Minima: Mijana:
Temperatura: TemperatureC °F 4.4 °F 14.2 °F
Rosada: DewpointC °F 3.1 °F 8.8 °F
Humitat: Humidity % 45 % 72 %
Velocitat del vent: WindSpeedKMH mph 0.0 mph 6.8 mph
Racha vent: WindSpeedGustKMH mph - -
Vent:- - ESE
Pressio: PressurehPa in 1019.9 in -
Pluja: 0.5 in    
Historical Graphs
 
 
Tabular Data for Octubre 17, 2017
Time Temperature Dew Point Pressure Wind Wind Speed Wind Gust Humidity Rainfall Rate (Hourly) solar Conditions
TemperatureC °F DewpointC °F PressurehPa in Calm     Humidity % HourlyPrecipMM in SolarRadiationWatts/m^2 W/m2 Conditions
00:03 10.0 °F 6.5 °F 1026.6 in Calm     79 % 0.0 in 0.0 W/m2 CLR
00:08 10.0 °F 6.3 °F 1026.6 in Calm     78 % 0.0 in 0.0 W/m2 CLR
00:13 9.4 °F 6.0 °F 1026.6 in Calm     79 % 0.0 in 0.0 W/m2 CLR
00:18 9.4 °F 6.0 °F 1026.6 in Calm     79 % 0.0 in 0.0 W/m2 CLR
00:23 8.9 °F 5.6 °F 1026.6 in Calm     80 % 0.0 in 0.0 W/m2 CLR
00:28 8.9 °F 5.8 °F 1026.6 in Calm     81 % 0.0 in 0.0 W/m2 CLR
00:33 8.9 °F 5.8 °F 1026.6 in Calm     81 % 0.0 in 0.0 W/m2 CLR
00:38 8.9 °F 5.6 °F 1027.0 in Calm     80 % 0.0 in 0.0 W/m2 CLR
00:43 8.9 °F 5.8 °F 1026.6 in Calm     81 % 0.0 in 0.0 W/m2 CLR
00:48 8.9 °F 5.8 °F 1026.6 in Calm     81 % 0.0 in 0.0 W/m2 CLR
00:53 8.3 °F 5.4 °F 1026.6 in Calm     82 % 0.0 in 0.0 W/m2 CLR
00:58 8.9 °F 6.2 °F 1026.6 in Calm     83 % 0.0 in 0.0 W/m2 CLR
01:03 8.3 °F 5.6 °F 1026.6 in Calm     83 % 0.0 in 0.0 W/m2 CLR
01:08 8.3 °F 5.6 °F 1026.6 in Calm     83 % 0.0 in 0.0 W/m2 CLR
01:13 8.3 °F 5.8 °F 1026.6 in Calm     84 % 0.0 in 0.0 W/m2 CLR
01:18 8.9 °F 6.3 °F 1026.6 in Calm     84 % 0.0 in 0.0 W/m2 CLR
01:23 8.3 °F 5.8 °F 1026.6 in Calm     84 % 0.0 in 0.0 W/m2 CLR
01:28 8.3 °F 5.8 °F 1026.6 in Calm     84 % 0.0 in 0.0 W/m2 CLR
01:33 8.3 °F 5.8 °F 1026.6 in Calm     84 % 0.0 in 0.0 W/m2 CLR
01:38 7.8 °F 5.2 °F 1026.6 in Calm     84 % 0.0 in 0.0 W/m2 CLR
01:43 8.3 °F 5.8 °F 1026.6 in Calm     84 % 0.0 in 0.0 W/m2 CLR
01:48 7.8 °F 5.2 °F 1026.6 in Calm     84 % 0.0 in 0.0 W/m2 CLR
01:53 7.8 °F 5.4 °F 1026.6 in Calm     85 % 0.0 in 0.0 W/m2 CLR
01:58 7.8 °F 5.6 °F 1026.6 in Calm     86 % 0.0 in 0.0 W/m2 CLR
02:03 7.8 °F 5.6 °F 1026.6 in Calm     86 % 0.0 in 0.0 W/m2 CLR
02:08 7.2 °F 5.2 °F 1026.6 in Calm     87 % 0.0 in 0.0 W/m2 CLR
02:13 7.2 °F 5.2 °F 1026.6 in Calm     87 % 0.0 in 0.0 W/m2 CLR
02:18 6.7 °F 4.7 °F 1026.6 in Calm     87 % 0.0 in 0.0 W/m2 CLR
02:23 6.7 °F 4.5 °F 1026.6 in Calm     86 % 0.0 in 0.0 W/m2 CLR
02:28 6.7 °F 4.7 °F 1026.6 in Calm     87 % 0.0 in 0.0 W/m2 CLR
02:33 6.1 °F 4.1 °F 1026.6 in Calm     87 % 0.0 in 0.0 W/m2 CLR
02:38 6.7 °F 4.7 °F 1026.6 in Calm     87 % 0.0 in 0.0 W/m2 CLR
02:43 6.1 °F 4.1 °F 1026.6 in Calm     87 % 0.0 in 0.0 W/m2 CLR
02:48 6.1 °F 4.1 °F 1026.3 in Calm     87 % 0.0 in 0.0 W/m2 CLR
02:53 6.1 °F 4.3 °F 1026.3 in Calm     88 % 0.0 in 0.0 W/m2 CLR
02:58 6.1 °F 4.1 °F 1026.3 in Calm     87 % 0.0 in 0.0 W/m2 CLR
03:03 6.1 °F 4.1 °F 1026.3 in Calm     87 % 0.0 in 0.0 W/m2 CLR
03:08 5.6 °F 3.6 °F 1026.3 in Calm     87 % 0.0 in 0.0 W/m2 CLR
03:13 5.6 °F 3.7 °F 1026.3 in Calm     88 % 0.0 in 0.0 W/m2 CLR
03:18 5.6 °F 3.6 °F 1026.3 in Calm     87 % 0.0 in 0.0 W/m2 CLR
03:23 5.6 °F 3.6 °F 1026.3 in Calm     87 % 0.0 in 0.0 W/m2 CLR
03:28 5.6 °F 3.6 °F 1026.3 in Calm     87 % 0.0 in 0.0 W/m2 CLR
03:33 5.6 °F 3.6 °F 1026.0 in Calm     87 % 0.0 in 0.0 W/m2 CLR
03:38 5.6 °F 3.6 °F 1026.0 in Calm     87 % 0.0 in 0.0 W/m2 CLR
03:43 5.6 °F 3.6 °F 1026.0 in Calm     87 % 0.0 in 0.0 W/m2 CLR
03:48 5.6 °F 3.6 °F 1026.0 in Calm     87 % 0.0 in 0.0 W/m2 CLR
03:53 5.6 °F 3.6 °F 1026.0 in Calm     87 % 0.0 in 0.0 W/m2 CLR
03:58 5.6 °F 3.6 °F 1026.0 in Calm     87 % 0.0 in 0.0 W/m2 CLR
04:03 5.6 °F 3.6 °F 1026.0 in Calm     87 % 0.0 in 0.0 W/m2 CLR
04:08 5.6 °F 3.7 °F 1026.0 in Calm     88 % 0.0 in 0.0 W/m2 CLR
04:13 5.6 °F 3.7 °F 1026.0 in Calm     88 % 0.0 in 0.0 W/m2 CLR
04:18 5.6 °F 3.7 °F 1025.6 in Calm     88 % 0.0 in 0.0 W/m2 CLR
04:23 5.6 °F 3.9 °F 1025.6 in Calm     89 % 0.0 in 0.0 W/m2 CLR
04:28 5.6 °F 3.7 °F 1025.6 in Calm     88 % 0.0 in 0.0 W/m2 CLR
04:33 5.6 °F 3.7 °F 1025.6 in Calm     88 % 0.0 in 0.0 W/m2 CLR
04:38 5.6 °F 3.7 °F 1025.6 in Calm     88 % 0.0 in 0.0 W/m2 CLR
04:43 5.6 °F 3.9 °F 1025.6 in Calm     89 % 0.0 in 0.0 W/m2 CLR
04:48 5.6 °F 3.9 °F 1025.6 in Calm     89 % 0.0 in 0.0 W/m2 CLR
04:53 5.6 °F 3.9 °F 1025.3 in Calm     89 % 0.0 in 0.0 W/m2 CLR
04:58 5.6 °F 3.9 °F 1025.3 in Calm     89 % 0.0 in 0.0 W/m2 CLR
05:03 5.6 °F 4.1 °F 1025.3 in Calm     90 % 0.0 in 0.0 W/m2 CLR
05:08 5.6 °F 3.9 °F 1025.3 in Calm     89 % 0.0 in 0.0 W/m2 CLR
05:16 5.6 °F 3.9 °F 1025.3 in Calm     89 % 0.0 in 0.0 W/m2 CLR
05:21 5.6 °F 4.1 °F 1025.3 in Calm     90 % 0.0 in 0.0 W/m2 CLR
05:22 5.6 °F 3.9 °F 1025.3 in Calm     89 % 0.0 in 0.0 W/m2 CLR
05:26 5.6 °F 3.9 °F 1025.3 in Calm     89 % 0.0 in 0.0 W/m2 CLR
05:29 5.6 °F 4.1 °F 1025.3 in Calm     90 % 0.0 in 0.0 W/m2 CLR
05:34 5.6 °F 4.1 °F 1025.3 in Calm     90 % 0.0 in 0.0 W/m2 CLR
05:39 5.6 °F 4.1 °F 1025.3 in Calm     90 % 0.0 in 0.0 W/m2 CLR
05:44 5.6 °F 4.1 °F 1025.3 in Calm     90 % 0.0 in 0.0 W/m2 CLR
05:49 5.6 °F 4.1 °F 1025.3 in Calm     90 % 0.0 in 0.0 W/m2 CLR
05:54 5.6 °F 4.1 °F 1025.3 in Calm     90 % 0.0 in 0.0 W/m2 CLR
05:59 5.6 °F 4.1 °F 1025.3 in Calm     90 % 0.0 in 0.0 W/m2 CLR
06:04 5.0 °F 3.5 °F 1025.3 in Calm     90 % 0.0 in 0.0 W/m2 CLR
06:09 5.0 °F 3.7 °F 1025.3 in Calm     91 % 0.0 in 0.0 W/m2 CLR
06:14 5.0 °F 3.5 °F 1025.3 in Calm     90 % 0.0 in 0.0 W/m2 CLR
06:19 5.0 °F 3.5 °F 1025.3 in Calm     90 % 0.0 in 0.0 W/m2 CLR
06:24 5.0 °F 3.5 °F 1025.3 in Calm     90 % 0.0 in 0.0 W/m2 CLR
06:29 5.0 °F 3.5 °F 1025.3 in Calm     90 % 0.0 in 0.0 W/m2 CLR
06:34 5.6 °F 4.1 °F 1025.3 in Calm     90 % 0.0 in 0.0 W/m2 CLR
06:39 5.6 °F 4.1 °F 1025.3 in Calm     90 % 0.0 in 0.0 W/m2 CLR
06:44 5.6 °F 4.1 °F 1025.3 in Calm     90 % 0.0 in 0.0 W/m2 CLR
06:49 5.0 °F 3.5 °F 1025.3 in Calm     90 % 0.0 in 0.0 W/m2 CLR
06:54 5.0 °F 3.5 °F 1025.3 in Calm     90 % 0.0 in 0.0 W/m2 CLR
06:59 5.0 °F 3.5 °F 1025.3 in Calm     90 % 0.0 in 0.0 W/m2 CLR
07:04 5.0 °F 3.5 °F 1025.3 in Calm     90 % 0.0 in 0.0 W/m2 CLR
07:09 5.0 °F 3.5 °F 1025.3 in Calm     90 % 0.0 in 0.0 W/m2 CLR
07:14 5.0 °F 3.5 °F 1025.3 in Calm     90 % 0.0 in 0.0 W/m2 CLR
07:19 5.0 °F 3.5 °F 1025.3 in Calm     90 % 0.0 in 0.0 W/m2 CLR
07:24 5.0 °F 3.7 °F 1025.3 in Calm     91 % 0.0 in 0.0 W/m2 CLR
07:30 5.6 °F 4.2 °F 1024.9 in Calm     91 % 0.0 in 0.0 W/m2 CLR
07:35 5.6 °F 4.1 °F 1025.3 in Calm     90 % 0.0 in 0.0 W/m2 CLR
07:40 5.0 °F 3.5 °F 1025.3 in Calm     90 % 0.0 in 0.0 W/m2 CLR
07:45 5.0 °F 3.5 °F 1025.3 in Calm     90 % 0.0 in 0.0 W/m2 CLR
07:50 5.0 °F 3.5 °F 1025.3 in Calm     90 % 0.0 in 0.0 W/m2 CLR
07:55 5.0 °F 3.7 °F 1024.9 in Calm     91 % 0.0 in 0.0 W/m2 CLR
08:00 5.0 °F 3.7 °F 1025.3 in Calm     91 % 0.0 in 0.0 W/m2 CLR
08:05 4.4 °F 3.1 °F 1025.3 in Calm     91 % 0.0 in 0.0 W/m2 OVC
08:11 4.4 °F 3.1 °F 1025.3 in Calm     91 % 0.0 in 0.0 W/m2 OVC
08:15 5.0 °F 3.7 °F 1025.3 in Calm     91 % 0.0 in 5.0 W/m2 OVC
08:20 5.0 °F 3.7 °F 1025.3 in Calm     91 % 0.0 in 9.0 W/m2 BKN
08:26 5.0 °F 3.7 °F 1025.3 in Calm     91 % 0.0 in 11.0 W/m2 BKN
08:31 4.4 °F 3.1 °F 1025.3 in Calm     91 % 0.0 in 14.0 W/m2 BKN
08:36 5.0 °F 3.7 °F 1025.3 in Calm     91 % 0.0 in 16.0 W/m2 BKN
08:41 5.0 °F 3.7 °F 1025.3 in Calm     91 % 0.0 in 21.0 W/m2 BKN
08:46 5.0 °F 3.7 °F 1025.6 in Calm     91 % 0.0 in 26.0 W/m2 BKN
08:51 5.6 °F 4.2 °F 1025.6 in Calm     91 % 0.0 in 35.0 W/m2 BKN
08:56 5.6 °F 4.1 °F 1025.6 in Calm     90 % 0.0 in 44.0 W/m2 BKN
09:01 5.0 °F 3.7 °F 1025.6 in Calm     91 % 0.0 in 62.0 W/m2 SCT
09:06 5.0 °F 3.5 °F 1025.6 in Calm     90 % 0.0 in 74.0 W/m2 FEW
09:11 5.0 °F 3.5 °F 1025.6 in Calm     90 % 0.0 in 84.0 W/m2 FEW
09:16 5.6 °F 4.1 °F 1025.6 in Calm     90 % 0.0 in 100.0 W/m2 FEW
09:21 5.6 °F 3.9 °F 1025.6 in Calm     89 % 0.0 in 102.0 W/m2 CLR
09:26 6.1 °F 4.3 °F 1025.6 in Calm     88 % 0.0 in 134.0 W/m2 CLR
09:31 6.1 °F 4.1 °F 1025.6 in Calm     87 % 0.0 in 149.0 W/m2 CLR
09:36 6.1 °F 4.1 °F 1025.6 in Calm     87 % 0.0 in 127.0 W/m2 CLR
09:41 6.7 °F 4.5 °F 1025.6 in Calm     86 % 0.0 in 183.0 W/m2 CLR
09:46 6.7 °F 4.5 °F 1025.6 in Calm     86 % 0.0 in 202.0 W/m2 CLR
09:51 7.2 °F 4.9 °F 1025.6 in Calm     85 % 0.0 in 220.0 W/m2 CLR
09:56 7.8 °F 5.1 °F 1025.6 in Calm     83 % 0.0 in 237.0 W/m2 CLR
10:01 8.3 °F 5.4 °F 1026.0 in Calm     82 % 0.0 in 257.0 W/m2 CLR
10:06 8.3 °F 5.3 °F 1025.6 in Calm     81 % 0.0 in 274.0 W/m2 CLR
10:11 8.9 °F 5.6 °F 1025.6 in Calm     80 % 0.0 in 287.0 W/m2 CLR
10:16 8.9 °F 5.1 °F 1025.6 in Calm     77 % 0.0 in 302.0 W/m2 CLR
10:21 9.4 °F 5.2 °F 1025.6 in Calm     75 % 0.0 in 318.0 W/m2 CLR
10:26 9.4 °F 5.1 °F 1025.6 in Calm     74 % 0.0 in 332.0 W/m2 CLR
10:31 10.0 °F 5.6 °F 1025.6 in Calm     74 % 0.0 in 346.0 W/m2 CLR
10:36 11.1 °F 6.4 °F 1025.6 in Calm     73 % 0.0 in 359.0 W/m2 CLR
10:41 11.7 °F 7.0 °F 1025.6 in Calm     73 % 0.0 in 373.0 W/m2 CLR
10:46 12.2 °F 7.1 °F 1025.6 in Calm     71 % 0.0 in 387.0 W/m2 CLR
10:51 12.2 °F 6.7 °F 1025.3 in Calm     69 % 0.0 in 397.0 W/m2 CLR
10:56 12.8 °F 7.4 °F 1025.3 in Calm     70 % 0.0 in 410.0 W/m2 CLR
11:01 13.3 °F 7.8 °F 1025.3 in Calm     69 % 0.0 in 422.0 W/m2 CLR
11:06 13.9 °F 8.1 °F 1025.3 in Calm     68 % 0.0 in 438.0 W/m2 CLR
11:11 14.4 °F 8.4 °F 1025.3 in Calm     67 % 0.0 in 448.0 W/m2 CLR
11:16 14.4 °F 8.4 °F 1024.9 in Calm     67 % 0.0 in 455.0 W/m2 CLR
11:21 15.0 °F 8.7 °F 1024.9 in Calm     66 % 0.0 in 469.0 W/m2 CLR
11:26 15.6 °F 8.6 °F 1024.9 in Calm     63 % 0.0 in 476.0 W/m2 CLR
11:31 16.1 °F 8.8 °F 1024.9 in Calm     62 % 0.0 in 489.0 W/m2 CLR
11:36 17.2 °F 9.6 °F 1024.6 in Calm     61 % 0.0 in 499.0 W/m2 CLR
11:41 17.2 °F 9.6 °F 1024.6 in Calm     61 % 0.0 in 508.0 W/m2 CLR
11:46 17.8 °F 10.2 °F 1024.6 in Calm     61 % 0.0 in 517.0 W/m2 CLR
11:51 18.3 °F 10.2 °F 1024.6 in Calm     59 % 0.0 in 529.0 W/m2 CLR
11:56 18.9 °F 10.7 °F 1024.6 in NNW 5.6 mph 5.6 mph 59 % 0.0 in 538.0 W/m2 CLR
12:01 18.9 °F 10.7 °F 1024.6 in North 5.6 mph 5.6 mph 59 % 0.0 in 545.0 W/m2 CLR
12:06 19.4 °F 11.2 °F 1024.3 in NNW 5.6 mph   59 % 0.0 in 554.0 W/m2 CLR
12:11 19.4 °F 11.2 °F 1024.3 in Calm     59 % 0.0 in 563.0 W/m2 CLR
12:17 20.0 °F 11.5 °F 1024.3 in NNW 9.3 mph 9.3 mph 58 % 0.0 in 568.0 W/m2 CLR
12:22 20.6 °F 12.3 °F 1024.3 in NNW 5.6 mph 5.6 mph 59 % 0.0 in 575.0 W/m2 CLR
12:27 20.6 °F 12.0 °F 1023.9 in North 12.9 mph 12.9 mph 58 % 0.0 in 582.0 W/m2 CLR
12:32 21.1 °F 12.5 °F 1023.9 in NW 7.4 mph 7.4 mph 58 % 0.0 in 587.0 W/m2 CLR
12:37 21.1 °F 12.5 °F 1023.9 in WNW 9.7 mph 9.7 mph 58 % 0.0 in 591.0 W/m2 CLR
12:42 21.1 °F 12.3 °F 1023.9 in NNW 5.6 mph 5.6 mph 57 % 0.0 in 596.0 W/m2 CLR
12:47 21.7 °F 12.8 °F 1023.9 in NNW 14.8 mph 14.8 mph 57 % 0.0 in 601.0 W/m2 CLR
12:52 21.7 °F 12.5 °F 1023.9 in Calm     56 % 0.0 in 603.0 W/m2 CLR
12:57 22.2 °F 12.7 °F 1023.6 in NW 5.6 mph 5.6 mph 55 % 0.0 in 610.0 W/m2 CLR
13:02 22.8 °F 13.3 °F 1023.6 in NNW 7.4 mph   55 % 0.0 in 610.0 W/m2 CLR
13:07 22.2 °F 12.4 °F 1023.6 in NW 13.0 mph 13.0 mph 54 % 0.0 in 621.0 W/m2 CLR
13:12 22.2 °F 12.2 °F 1023.6 in NNW 16.7 mph 16.7 mph 53 % 0.0 in 622.0 W/m2 CLR
13:17 22.8 °F 12.7 °F 1023.2 in NW 16.7 mph 16.7 mph 53 % 0.0 in 624.0 W/m2 CLR
13:22 22.8 °F 12.4 °F 1023.2 in NNW 13.0 mph 13.0 mph 52 % 0.0 in 624.0 W/m2 CLR
13:27 23.3 °F 12.9 °F 1023.2 in West 7.4 mph 7.4 mph 52 % 0.0 in 626.0 W/m2 CLR
13:32 23.3 °F 12.3 °F 1022.9 in NNW 14.5 mph 14.5 mph 50 % 0.0 in 628.0 W/m2 CLR
13:37 23.9 °F 12.8 °F 1022.9 in NNW 14.8 mph 14.8 mph 50 % 0.0 in 626.0 W/m2 CLR
13:38 23.9 °F 12.8 °F 1022.9 in NW 16.7 mph 16.7 mph 50 % 0.0 in 626.0 W/m2 CLR
13:43 23.9 °F 12.5 °F 1022.9 in NE 14.8 mph 14.8 mph 49 % 0.0 in 629.0 W/m2 CLR
13:48 23.9 °F 12.5 °F 1022.9 in North 14.8 mph 14.8 mph 49 % 0.0 in 628.0 W/m2 CLR
13:53 23.9 °F 12.5 °F 1022.6 in North 16.7 mph 16.7 mph 49 % 0.0 in 629.0 W/m2 CLR
13:58 24.4 °F 13.1 °F 1022.6 in NE 6.4 mph 6.9 mph 49 % 0.0 in 631.0 W/m2 CLR
14:03 24.4 °F 12.7 °F 1022.6 in North 14.8 mph 14.8 mph 48 % 0.0 in 628.0 W/m2 CLR
14:08 24.4 °F 12.1 °F 1022.2 in NE 16.7 mph 16.7 mph 46 % 0.0 in 629.0 W/m2 CLR
14:13 24.4 °F 12.4 °F 1022.2 in NNE 18.5 mph 18.5 mph 47 % 0.0 in 628.0 W/m2 CLR
14:18 24.4 °F 12.4 °F 1022.2 in NNE 16.7 mph 16.7 mph 47 % 0.0 in 622.0 W/m2 CLR
14:23 24.4 °F 12.7 °F 1021.9 in NNE 11.3 mph 11.3 mph 48 % 0.0 in 615.0 W/m2 CLR
14:28 24.4 °F 12.7 °F 1021.9 in North 7.4 mph 7.4 mph 48 % 0.0 in 608.0 W/m2 CLR
14:33 24.4 °F 12.4 °F 1021.9 in North 14.5 mph 14.5 mph 47 % 0.0 in 606.0 W/m2 CLR
14:38 24.4 °F 12.4 °F 1021.6 in North 11.1 mph 11.1 mph 47 % 0.0 in 601.0 W/m2 CLR
14:43 25.0 °F 12.9 °F 1021.6 in North 12.9 mph 12.9 mph 47 % 0.0 in 598.0 W/m2 CLR
14:48 25.0 °F 12.2 °F 1021.2 in ENE 16.7 mph 16.7 mph 45 % 0.0 in 592.0 W/m2 CLR
14:53 25.6 °F 12.7 °F 1021.2 in NE 18.5 mph 18.5 mph 45 % 0.0 in 585.0 W/m2 CLR
14:58 25.6 °F 12.7 °F 1021.2 in ENE 18.5 mph 18.5 mph 45 % 0.0 in 580.0 W/m2 CLR
15:03 25.6 °F 13.1 °F 1021.2 in NE 20.4 mph 20.4 mph 46 % 0.0 in 578.0 W/m2 CLR
15:08 25.6 °F 13.1 °F 1020.9 in NNE 24.1 mph 24.1 mph 46 % 0.0 in 571.0 W/m2 CLR
15:13 25.0 °F 12.9 °F 1020.9 in NNE 25.9 mph 25.9 mph 47 % 0.0 in 552.0 W/m2 CLR
15:18 25.0 °F 12.9 °F 1020.9 in NNE 20.4 mph 20.4 mph 47 % 0.0 in 519.0 W/m2 CLR
15:23 25.0 °F 13.2 °F 1020.5 in NNE 18.5 mph 18.5 mph 48 % 0.0 in 504.0 W/m2 CLR
15:28 25.0 °F 13.2 °F 1020.5 in NE 24.1 mph 24.1 mph 48 % 0.0 in 482.0 W/m2 CLR
15:33 25.0 °F 13.2 °F 1020.5 in NE 29.6 mph 29.6 mph 48 % 0.0 in 506.0 W/m2 CLR
15:38 25.6 °F 13.7 °F 1020.5 in NE 20.9 mph 20.9 mph 48 % 0.0 in 496.0 W/m2 CLR
15:43 25.0 °F 13.6 °F 1020.5 in NNE 20.4 mph 20.4 mph 49 % 0.0 in 446.0 W/m2 CLR
15:48 25.0 °F 13.2 °F 1020.5 in NE 29.6 mph 29.6 mph 48 % 0.0 in 436.0 W/m2 CLR
15:53 24.4 °F 13.3 °F 1020.5 in ENE 27.8 mph 27.8 mph 50 % 0.0 in 438.0 W/m2 CLR
15:58 24.4 °F 13.7 °F 1020.5 in NE 24.1 mph 24.1 mph 51 % 0.0 in 448.0 W/m2 CLR
16:03 24.4 °F 13.3 °F 1020.5 in NE 24.1 mph 24.1 mph 50 % 0.0 in 448.0 W/m2 CLR
16:08 25.0 °F 14.2 °F 1020.2 in NE 25.9 mph 25.9 mph 51 % 0.0 in 461.0 W/m2 CLR
16:13 25.0 °F 14.2 °F 1020.2 in ENE 31.5 mph 31.5 mph 51 % 0.0 in 450.0 W/m2 CLR
16:18 25.0 °F 14.2 °F 1020.2 in NE 27.8 mph 27.8 mph 51 % 0.0 in 439.0 W/m2 CLR
16:23 25.0 °F 14.4 °F 1020.2 in NE 27.8 mph 27.8 mph 52 % 0.0 in 431.0 W/m2 CLR
16:28 24.4 °F 13.9 °F 1020.2 in NE 27.8 mph 27.8 mph 52 % 0.0 in 420.0 W/m2 CLR
16:33 24.4 °F 14.2 °F 1020.2 in NE 31.5 mph 31.5 mph 53 % 0.0 in 406.0 W/m2 CLR
16:38 24.4 °F 14.2 °F 1019.9 in ENE 29.6 mph 29.6 mph 53 % 0.0 in 392.0 W/m2 CLR
16:43 24.4 °F 13.9 °F 1019.9 in ENE 33.3 mph 33.3 mph 52 % 0.0 in 381.0 W/m2 CLR
16:48 24.4 °F 14.2 °F 1020.2 in East 25.9 mph 25.9 mph 53 % 0.0 in 369.0 W/m2 CLR
16:53 24.4 °F 13.9 °F 1019.9 in ENE 31.5 mph 31.5 mph 52 % 0.0 in 357.0 W/m2 CLR
16:58 24.4 °F 13.9 °F 1019.9 in NE 33.3 mph 33.3 mph 52 % 0.0 in 336.0 W/m2 CLR
17:03 24.4 °F 14.6 °F 1020.2 in NE 20.4 mph 23.3 mph 54 % 0.0 in 272.0 W/m2 CLR
17:08 23.9 °F 14.3 °F 1019.9 in East 22.5 mph 22.5 mph 55 % 0.0 in 316.0 W/m2 CLR
17:13 23.9 °F 14.0 °F 1019.9 in NE 29.6 mph 29.6 mph 54 % 0.0 in 297.0 W/m2 CLR
17:18 23.9 °F 14.3 °F 1019.9 in East 31.5 mph 31.5 mph 55 % 0.0 in 276.0 W/m2 CLR
17:23 23.9 °F 14.3 °F 1019.9 in NE 18.5 mph 18.5 mph 55 % 0.0 in 176.0 W/m2 CLR
17:28 23.3 °F 13.8 °F 1019.9 in ENE 25.9 mph 25.9 mph 55 % 0.0 in 251.0 W/m2 CLR
17:33 23.3 °F 13.8 °F 1019.9 in ENE 25.9 mph 25.9 mph 55 % 0.0 in 142.0 W/m2 CLR
17:38 22.8 °F 13.6 °F 1020.2 in ENE 18.5 mph 18.5 mph 56 % 0.0 in 171.0 W/m2 CLR
17:43 22.8 °F 13.6 °F 1019.9 in NE 20.4 mph 20.4 mph 56 % 0.0 in 130.0 W/m2 CLR
17:48 22.2 °F 13.0 °F 1019.9 in ENE 18.5 mph 18.5 mph 56 % 0.0 in 83.0 W/m2 CLR
17:53 22.2 °F 13.3 °F 1020.2 in ENE 18.5 mph 18.5 mph 57 % 0.0 in 84.0 W/m2 CLR
17:58 21.7 °F 12.8 °F 1020.2 in East 22.5 mph 22.5 mph 57 % 0.0 in 81.0 W/m2 CLR
18:03 21.7 °F 12.8 °F 1020.2 in ENE 18.5 mph 18.5 mph 57 % 0.0 in 40.0 W/m2 SCT
18:08 21.7 °F 13.1 °F 1020.2 in East 11.1 mph 11.1 mph 58 % 0.0 in 39.0 W/m2 SCT
18:13 21.1 °F 12.3 °F 1020.2 in East 16.7 mph 16.7 mph 57 % 0.0 in 40.0 W/m2 BKN
18:18 21.1 °F 12.3 °F 1020.2 in ENE 7.4 mph 7.4 mph 57 % 0.0 in 42.0 W/m2 BKN
18:23 21.1 °F 12.0 °F 1020.2 in East 18.5 mph 18.5 mph 56 % 0.0 in 37.0 W/m2 BKN
18:24 21.1 °F 12.0 °F 1020.2 in East 13.0 mph 13.0 mph 56 % 0.0 in 32.0 W/m2 BKN
18:29 21.1 °F 12.0 °F 1020.2 in Calm     56 % 0.0 in 25.0 W/m2 BKN
18:34 20.6 °F 11.4 °F 1020.2 in ESE 11.1 mph 11.1 mph 56 % 0.0 in 21.0 W/m2 BKN
18:39 20.6 °F 11.7 °F 1020.5 in East 16.7 mph 16.7 mph 57 % 0.0 in 19.0 W/m2 BKN
18:45 20.0 °F 11.2 °F 1020.5 in ESE 16.7 mph 16.7 mph 57 % 0.0 in 14.0 W/m2 BKN
18:46 20.0 °F 11.2 °F 1020.2 in East 18.5 mph 18.5 mph 57 % 0.0 in 14.0 W/m2 BKN
18:50 20.0 °F 11.5 °F 1020.2 in ENE 19.3 mph 19.3 mph 58 % 0.0 in 9.0 W/m2 BKN
18:56 20.0 °F 11.5 °F 1020.2 in ESE 22.2 mph 22.2 mph 58 % 0.0 in 5.0 W/m2 OVC
19:01 20.0 °F 11.5 °F 1020.2 in East 13.0 mph 13.0 mph 58 % 0.0 in 0.0 W/m2 OVC
19:06 20.0 °F 11.7 °F 1020.5 in East 14.8 mph 14.8 mph 59 % 0.0 in 0.0 W/m2 OVC
19:11 19.4 °F 11.2 °F 1020.5 in ESE 9.3 mph 9.3 mph 59 % 0.0 in 0.0 W/m2 OVC
19:16 19.4 °F 11.2 °F 1020.5 in ENE 5.6 mph 5.6 mph 59 % 0.0 in 0.0 W/m2 OVC
19:21 19.4 °F 11.2 °F 1020.5 in East 11.1 mph 11.1 mph 59 % 0.0 in 0.0 W/m2 OVC
19:27 19.4 °F 11.5 °F 1020.5 in ENE 11.3 mph 11.3 mph 60 % 0.0 in 0.0 W/m2 CLR
19:31 19.4 °F 11.9 °F 1020.5 in ENE 14.8 mph 14.8 mph 62 % 0.0 in 0.0 W/m2 CLR
19:36 19.4 °F 12.2 °F 1020.5 in ENE 17.7 mph 17.7 mph 63 % 0.0 in 0.0 W/m2 CLR
19:41 19.4 °F 12.7 °F 1020.2 in East 17.7 mph 17.7 mph 65 % 0.0 in 0.0 W/m2 CLR
19:46 19.4 °F 12.9 °F 1020.2 in East 20.4 mph 20.4 mph 66 % 0.0 in 0.0 W/m2 CLR
19:51 19.4 °F 13.2 °F 1020.2 in East 20.4 mph 20.4 mph 67 % 0.0 in 0.0 W/m2 CLR
19:56 19.4 °F 13.2 °F 1020.2 in ENE 24.1 mph 24.1 mph 67 % 0.0 in 0.0 W/m2 CLR
20:01 19.4 °F 13.2 °F 1020.2 in East 12.9 mph 12.9 mph 67 % 0.0 in 0.0 W/m2 CLR
20:07 19.4 °F 13.2 °F 1020.2 in East 18.5 mph 18.5 mph 67 % 0.0 in 0.0 W/m2 CLR
20:12 19.4 °F 13.2 °F 1020.2 in ENE 18.5 mph 18.5 mph 67 % 0.0 in 0.0 W/m2 CLR
20:17 19.4 °F 13.2 °F 1020.2 in East 16.7 mph 16.7 mph 67 % 0.0 in 0.0 W/m2 CLR
20:22 19.4 °F 13.4 °F 1020.2 in ENE 11.1 mph 11.1 mph 68 % 0.0 in 0.0 W/m2 CLR
20:27 19.4 °F 13.4 °F 1020.2 in ENE 13.0 mph 13.0 mph 68 % 0.0 in 0.0 W/m2 CLR
20:32 18.9 °F 12.8 °F 1019.9 in East 14.8 mph 14.8 mph 68 % 0.0 in 0.0 W/m2 CLR
20:37 18.9 °F 13.1 °F 1019.9 in Calm     69 % 0.0 in 0.0 W/m2 CLR
20:42 18.9 °F 13.1 °F 1019.9 in ENE 3.7 mph   69 % 0.0 in 0.0 W/m2 CLR
20:43 18.9 °F 13.1 °F 1019.9 in NE 5.6 mph 5.6 mph 69 % 0.0 in 0.0 W/m2 CLR
20:48 18.3 °F 12.6 °F 1019.9 in ENE 5.6 mph 5.6 mph 69 % 0.0 in 0.0 W/m2 CLR
20:53 18.3 °F 12.6 °F 1019.9 in East 5.6 mph 5.6 mph 69 % 0.0 in 0.0 W/m2 CLR
20:54 18.3 °F 12.6 °F 1019.9 in East 5.6 mph 5.6 mph 69 % 0.0 in 0.0 W/m2 CLR
20:59 17.8 °F 12.2 °F 1019.9 in Calm     70 % 0.0 in 0.0 W/m2 CLR
21:04 17.8 °F 12.2 °F 1019.9 in ENE 9.7 mph 9.7 mph 70 % 0.0 in 0.0 W/m2 CLR
21:09 17.2 °F 11.7 °F 1019.9 in NE 9.3 mph 9.3 mph 70 % 0.0 in 0.0 W/m2 CLR
21:14 17.2 °F 11.9 °F 1019.9 in East 9.3 mph 9.3 mph 71 % 0.0 in 0.0 W/m2 CLR
21:19 17.2 °F 11.9 °F 1019.9 in East 14.5 mph 14.5 mph 71 % 0.0 in 0.0 W/m2 CLR
21:24 17.2 °F 11.9 °F 1019.9 in East 13.0 mph 13.0 mph 71 % 0.0 in 0.0 W/m2 CLR
21:29 17.2 °F 12.1 °F 1019.9 in ENE 16.1 mph 16.1 mph 72 % 0.0 in 0.0 W/m2 CLR
21:34 17.8 °F 12.7 °F 1019.9 in East 13.0 mph 13.0 mph 72 % 0.0 in 0.0 W/m2 CLR
21:39 17.8 °F 12.7 °F 1019.9 in ENE 11.1 mph 11.1 mph 72 % 0.0 in 0.0 W/m2 CLR
21:45 17.8 °F 12.7 °F 1019.9 in Calm   1.4 mph 72 % 0.0 in 0.0 W/m2 CLR
21:49 17.8 °F 12.9 °F 1019.9 in East 7.4 mph 7.4 mph 73 % 0.0 in 0.0 W/m2 CLR
21:55 17.8 °F 12.9 °F 1019.9 in Calm     73 % 0.0 in 0.0 W/m2 CLR
22:00 17.8 °F 12.9 °F 1019.9 in Calm     73 % 0.0 in 0.0 W/m2 CLR
22:05 17.8 °F 12.9 °F 1019.9 in Calm     73 % 0.0 in 0.0 W/m2 CLR
22:10 17.8 °F 12.9 °F 1019.9 in ENE 13.0 mph 13.0 mph 73 % 0.0 in 0.0 W/m2 CLR
22:15 17.2 °F 12.3 °F 1020.2 in ENE 8.0 mph 8.0 mph 73 % 0.0 in 0.0 W/m2 CLR
22:20 17.2 °F 12.3 °F 1020.2 in Calm     73 % 0.0 in 0.0 W/m2 CLR
22:25 17.2 °F 12.3 °F 1020.2 in ENE 5.6 mph   73 % 0.0 in 0.0 W/m2 CLR
22:30 17.2 °F 12.3 °F 1020.2 in Calm     73 % 0.0 in 0.0 W/m2 CLR
22:35 17.2 °F 12.6 °F 1020.2 in Calm     74 % 0.0 in 0.0 W/m2 CLR
22:40 17.2 °F 12.3 °F 1020.2 in Calm     73 % 0.0 in 0.0 W/m2 CLR
22:45 17.2 °F 12.6 °F 1020.2 in Calm     74 % 0.0 in 0.0 W/m2 CLR
22:50 17.2 °F 12.6 °F 1020.5 in Calm     74 % 0.0 in 0.0 W/m2 CLR
22:55 17.2 °F 12.6 °F 1020.5 in East 9.3 mph 9.3 mph 74 % 0.0 in 0.0 W/m2 CLR
23:00 17.2 °F 12.6 °F 1020.9 in ESE 5.6 mph 5.6 mph 74 % 0.0 in 0.0 W/m2 CLR
23:05 17.8 °F 13.3 °F 1021.2 in SSE 7.4 mph 7.4 mph 75 % 0.5 in 0.0 W/m2 RA
23:10 17.2 °F 12.9 °F 1021.6 in Calm     76 % 0.5 in 0.0 W/m2
23:15 17.2 °F 13.2 °F 1021.2 in Calm     77 % 0.5 in 0.0 W/m2 CLR
23:20 17.2 °F 13.2 °F 1021.2 in Calm     77 % 0.5 in 0.0 W/m2 CLR
23:25 16.7 °F 12.8 °F 1021.2 in Calm     78 % 0.5 in 0.0 W/m2 CLR
23:30 16.7 °F 13.2 °F 1020.9 in Calm     80 % 0.5 in 0.0 W/m2 CLR
23:35 16.7 °F 12.8 °F 1020.9 in Calm     78 % 0.5 in 0.0 W/m2 CLR
23:40 16.1 °F 12.7 °F 1021.2 in Calm     80 % 0.5 in 0.0 W/m2 CLR
23:45 16.1 °F 12.4 °F 1021.2 in Calm     79 % 0.5 in 0.0 W/m2 CLR
23:46 16.1 °F 12.3 °F 1020.9 in Calm     78 % 0.5 in 0.0 W/m2 CLR
23:51 16.1 °F 12.3 °F 1020.9 in Calm     78 % 0.5 in 0.0 W/m2 CLR
23:56 16.1 °F 12.3 °F 1020.9 in Calm     78 % 0.5 in 0.0 W/m2 CLR
Lo Temps de Massalio
Compliments of Weather Underground - 1.25 mb